Ana Sayfa
METAR-TAF:

METAR-TAF

Havaalanları :

Beatrice Municipal Airport

Beatrice, Nebraska, Amerika Birleşik Devletleri

Enlem: 40-18N, Boylam: 096-45W, yükseklik: 403 m

Güncel hava durumu gözlemi

Rapor saat 10:15 UTC de 49 dakika önce yapıldı.
Rüzgar güneydan 13 kt ve 19 kt'a kadar ani rüzgarlar
Sıcaklık 21°C
Nem 78%
Basınç 1006 hPa
Görüş mesafesi: 16.1 km
Açık gökyüzü

METAR: KBIE 161015Z AUTO 17013G19KT 10SM CLR 21/17 A2972 RMK AO2 LTG DSNT SE T02100167

Saat: 06:04 (11:04 UTC)


TAF: eksik

4.000'den fazla havaalanı için hava durumu gözlemleri ve tahminleri (METAR ve TAF raporları).

Kullanılabilir istasyonlar harita üzerinde sarı ve kırmızı noktalarla gösterilir.

İstasyonun adını görmek için fareyi noktanın üzerinde gezdirin.

Sonrasında hava gözlem ve tahminlerini görmek için tıklayın.

Haritayı değiştirmek için: yaklaştırmak için siyah artı işaretli yeşil düğmeye ve uzaklaştırmak için de eksi işaretli düğmeye hızla tıklayın; bitişik haritalar için yeşil okları kullanın.


METAR-TAF: